createdAt,value
2022-12-28T00:00:34.071Z,99819.00
2022-12-28T00:06:53.022Z,99814.47
2022-12-28T00:10:05.454Z,99814.03
2022-12-28T00:20:03.127Z,99808.25
2022-12-28T00:22:29.792Z,99811.34
2022-12-28T00:24:56.421Z,99817.97
2022-12-28T00:27:23.089Z,99810.06
2022-12-28T00:29:49.719Z,99805.38
2022-12-28T00:32:16.408Z,99805.69
2022-12-28T00:34:43.066Z,99803.31
2022-12-28T00:37:13.210Z,99808.44
2022-12-28T00:39:45.581Z,99795.88
2022-12-28T00:42:12.269Z,99784.91
2022-12-28T00:44:40.746Z,99770.00
2022-12-28T00:47:07.441Z,99767.59
2022-12-28T00:49:34.167Z,99771.16
2022-12-28T00:52:00.808Z,99771.47
2022-12-28T00:54:39.544Z,99762.78
2022-12-28T00:57:07.231Z,99765.88
2022-12-28T00:59:33.961Z,99760.38
2022-12-28T01:02:00.882Z,99752.47
2022-12-28T01:04:27.646Z,99725.38
2022-12-28T01:06:54.356Z,99718.72
2022-12-28T01:09:21.011Z,99707.72
2022-12-28T01:11:47.651Z,99697.44
2022-12-28T01:14:58.619Z,99701.78
2022-12-28T01:17:25.253Z,99705.69
2022-12-28T01:19:54.044Z,99703.72
2022-12-28T01:26:25.564Z,99691.47
2022-12-28T01:29:11.651Z,99680.03
2022-12-28T01:31:38.395Z,99674.53
2022-12-28T01:34:05.090Z,99694.88
2022-12-28T01:36:55.785Z,99671.34
2022-12-28T01:39:22.510Z,99666.53
2022-12-28T01:41:49.161Z,99645.69
2022-12-28T01:44:16.837Z,99635.06
2022-12-28T01:46:52.522Z,99628.75
2022-12-28T01:49:26.572Z,99628.31
2022-12-28T01:52:32.915Z,99629.44
2022-12-28T01:58:50.302Z,99637.88
2022-12-28T02:02:20.986Z,99624.84
2022-12-28T02:05:32.641Z,99612.28
2022-12-28T02:08:11.603Z,99613.41
2022-12-28T02:10:45.733Z,99620.50
2022-12-28T02:13:16.520Z,99627.25
2022-12-28T02:15:43.916Z,99619.81
2022-12-28T02:18:12.611Z,99615.94
2022-12-28T02:25:13.095Z,99603.00
2022-12-28T02:28:08.216Z,99587.34
2022-12-28T02:31:04.188Z,99593.97
2022-12-28T02:33:57.114Z,99593.16
2022-12-28T02:37:27.623Z,99597.06
2022-12-28T02:40:08.104Z,99597.88
2022-12-28T02:42:37.944Z,99601.41
2022-12-28T02:45:23.310Z,99604.13
2022-12-28T02:48:10.433Z,99590.91
2022-12-28T02:51:17.820Z,99592.84
2022-12-28T02:58:23.875Z,99578.97
2022-12-28T03:04:39.959Z,99578.31
2022-12-28T03:08:13.409Z,99573.28
2022-12-28T03:14:49.215Z,99545.97
2022-12-28T03:17:38.738Z,99530.31
2022-12-28T03:28:35.009Z,99497.00
2022-12-28T03:31:07.096Z,99490.03
2022-12-28T03:33:37.628Z,99483.75
2022-12-28T03:36:22.222Z,99481.47
2022-12-28T03:38:55.146Z,99472.88
2022-12-28T03:41:33.663Z,99471.75
2022-12-28T03:44:13.316Z,99465.44
2022-12-28T03:47:07.902Z,99448.19
2022-12-28T03:49:35.091Z,99446.25
2022-12-28T03:52:02.711Z,99433.66
2022-12-28T04:24:57.511Z,99343.66
2022-12-28T04:27:24.250Z,99332.13
2022-12-28T04:33:41.704Z,99322.06
2022-12-28T04:36:17.771Z,99306.19
2022-12-28T04:38:44.439Z,99295.56
2022-12-28T04:52:42.724Z,99252.03
2022-12-28T04:56:06.530Z,99244.59
2022-12-28T04:58:33.562Z,99228.28
2022-12-28T05:01:04.704Z,99228.06
2022-12-28T05:03:31.670Z,99207.03
2022-12-28T05:06:07.568Z,99204.03
2022-12-28T05:08:38.410Z,99201.06
2022-12-28T05:11:11.897Z,99183.59
2022-12-28T05:13:38.618Z,99194.31
2022-12-28T05:16:08.110Z,99195.22
2022-12-28T05:18:35.467Z,99189.50
2022-12-28T05:21:06.790Z,99180.56
2022-12-28T05:23:35.266Z,99175.22
2022-12-28T05:29:42.801Z,99157.69
2022-12-28T05:43:58.596Z,99109.16
2022-12-28T05:51:03.808Z,99082.81
2022-12-28T05:53:44.884Z,99075.94
2022-12-28T05:56:14.974Z,99068.16
2022-12-28T05:58:43.171Z,99054.84
2022-12-28T06:05:00.151Z,99025.84
2022-12-28T06:21:19.533Z,98978.53
2022-12-28T06:24:14.540Z,98958.09
2022-12-28T06:30:37.516Z,98936.84
2022-12-28T06:33:15.269Z,98911.34
2022-12-28T06:35:41.960Z,98910.22
2022-12-28T06:38:08.614Z,98895.34
2022-12-28T06:41:11.303Z,98892.59
2022-12-28T06:43:22.136Z,98867.91
2022-12-28T06:45:58.199Z,98855.75
2022-12-28T06:52:08.308Z,98836.56
2022-12-28T07:02:25.935Z,98795.78
2022-12-28T07:04:52.745Z,98785.59
2022-12-28T07:08:06.401Z,98770.69
2022-12-28T07:14:59.901Z,98744.16
2022-12-28T07:21:31.026Z,98709.75
2022-12-28T07:23:59.944Z,98694.88
2022-12-28T07:26:49.571Z,98684.34
2022-12-28T07:29:18.983Z,98669.09
2022-12-28T07:31:46.578Z,98664.03
2022-12-28T07:34:50.553Z,98654.31
2022-12-28T07:37:17.207Z,98641.81
2022-12-28T07:40:00.128Z,98625.38
2022-12-28T07:43:20.894Z,98621.91
2022-12-28T07:45:47.586Z,98606.66
2022-12-28T07:48:14.282Z,98590.25
2022-12-28T07:51:41.320Z,98585.19
2022-12-28T07:54:15.646Z,98581.72
2022-12-28T08:03:15.673Z,98549.72
2022-12-28T08:05:42.541Z,98544.28
2022-12-28T08:15:39.943Z,98502.78
2022-12-28T08:18:54.639Z,98494.97
2022-12-28T08:22:19.764Z,98470.66
2022-12-28T08:25:23.574Z,98446.38
2022-12-28T08:27:50.242Z,98439.34
2022-12-28T08:30:29.930Z,98439.78
2022-12-28T08:33:07.974Z,98420.53
2022-12-28T08:35:34.629Z,98414.66
2022-12-28T08:38:01.395Z,98405.69
2022-12-28T08:40:30.002Z,98388.06
2022-12-28T08:43:01.367Z,98375.88
2022-12-28T08:45:29.395Z,98349.22
2022-12-28T08:47:56.262Z,98359.84
2022-12-28T08:50:29.569Z,98359.84
2022-12-28T08:53:54.128Z,98351.22
2022-12-28T08:56:31.725Z,98333.56
2022-12-28T08:59:05.353Z,98319.44
2022-12-28T09:01:40.844Z,98296.69
2022-12-28T09:05:48.948Z,98290.44
2022-12-28T09:08:19.411Z,98285.75
2022-12-28T09:10:46.057Z,98281.84
2022-12-28T09:13:33.931Z,98271.63
2022-12-28T09:16:03.207Z,98262.22
2022-12-28T09:18:30.394Z,98268.13
2022-12-28T09:21:32.983Z,98263.03
2022-12-28T09:24:12.419Z,98259.13
2022-12-28T09:26:39.083Z,98256.78
2022-12-28T09:29:08.949Z,98234.81
2022-12-28T09:31:37.343Z,98238.75
2022-12-28T09:34:56.082Z,98225.44
2022-12-28T09:37:22.751Z,98213.66
2022-12-28T09:39:49.448Z,98205.84
2022-12-28T09:42:25.468Z,98198.81
2022-12-28T09:44:59.657Z,98189.06
2022-12-28T09:47:38.687Z,98171.06
2022-12-28T09:50:18.465Z,98169.13
2022-12-28T09:53:03.673Z,98160.50
2022-12-28T09:55:31.619Z,98152.28
2022-12-28T09:58:17.502Z,98140.94
2022-12-28T10:00:47.909Z,98137.47
2022-12-28T10:03:29.281Z,98132.78
2022-12-28T10:05:58.030Z,98118.25
2022-12-28T10:08:26.471Z,98113.19
2022-12-28T10:11:18.987Z,98094.34
2022-12-28T10:17:37.062Z,98082.22
2022-12-28T10:20:03.882Z,98071.22
2022-12-28T10:27:22.843Z,98061.00
2022-12-28T10:30:43.665Z,98042.94
2022-12-28T10:41:15.901Z,98013.47
2022-12-28T10:51:59.905Z,97997.75
2022-12-28T10:54:28.109Z,98001.69
2022-12-28T10:57:18.964Z,97970.25
2022-12-28T10:59:50.857Z,97965.91
2022-12-28T11:06:26.271Z,97949.41
2022-12-28T11:09:13.089Z,97939.19
2022-12-28T11:11:40.914Z,97926.19
2022-12-28T11:14:30.795Z,97920.25
2022-12-28T11:16:58.202Z,97908.06
2022-12-28T11:19:25.738Z,97917.06
2022-12-28T11:22:34.174Z,97904.47
2022-12-28T11:25:02.214Z,97906.03
2022-12-28T11:27:28.949Z,97895.41
2022-12-28T11:30:29.532Z,97892.63
2022-12-28T11:33:48.982Z,97884.78
2022-12-28T11:36:28.371Z,97880.03
2022-12-28T11:38:56.721Z,97879.22
2022-12-28T11:41:33.900Z,97873.28
2022-12-28T11:51:34.170Z,97853.38
2022-12-28T11:55:00.701Z,97850.56
2022-12-28T11:57:55.411Z,97856.84
2022-12-28T12:00:49.989Z,97845.38
2022-12-28T12:03:17.721Z,97844.88
2022-12-28T12:06:03.763Z,97842.88
2022-12-28T12:08:34.103Z,97832.56
2022-12-28T12:11:26.875Z,97833.69
2022-12-28T12:13:54.442Z,97835.22
2022-12-28T12:16:33.978Z,97831.25
2022-12-28T12:19:01.493Z,97826.47
2022-12-28T12:21:28.115Z,97822.88
2022-12-28T12:28:26.478Z,97821.25
2022-12-28T12:31:30.566Z,97818.03
2022-12-28T12:34:06.014Z,97814.09
2022-12-28T12:44:50.760Z,97831.50
2022-12-28T12:56:22.079Z,97833.81
2022-12-28T13:07:05.242Z,97812.16
2022-12-28T13:10:16.617Z,97810.63
2022-12-28T13:21:37.536Z,97802.81
2022-12-28T13:24:17.478Z,97795.72
2022-12-28T13:26:44.298Z,97781.50
2022-12-28T13:29:39.626Z,97779.16
2022-12-28T13:32:53.240Z,97779.50
2022-12-28T13:39:12.876Z,97777.25
2022-12-28T13:42:15.111Z,97784.78
2022-12-28T13:48:32.149Z,97758.50
2022-12-28T13:50:58.931Z,97760.91
2022-12-28T13:53:50.426Z,97740.84
2022-12-28T14:00:48.184Z,97763.38
2022-12-28T14:03:41.418Z,97744.13
2022-12-28T14:06:13.248Z,97739.47
2022-12-28T14:08:40.301Z,97743.03
2022-12-28T14:19:48.366Z,97731.34
2022-12-28T14:23:27.506Z,97726.22
2022-12-28T14:26:24.281Z,97709.66
2022-12-28T14:37:31.847Z,97702.59
2022-12-28T14:40:47.175Z,97682.09
2022-12-28T14:43:23.036Z,97686.00
2022-12-28T14:53:20.735Z,97680.03
2022-12-28T14:56:19.277Z,97687.13
2022-12-28T15:15:26.900Z,97663.50
2022-12-28T15:17:53.585Z,97663.91
2022-12-28T15:24:34.250Z,97660.78
2022-12-28T15:27:21.599Z,97676.53
2022-12-28T15:30:18.297Z,97678.88
2022-12-28T15:32:49.018Z,97671.81
2022-12-28T15:38:57.090Z,97655.28
2022-12-28T15:41:42.291Z,97660.00
2022-12-28T15:44:54.869Z,97669.50
2022-12-28T15:47:22.209Z,97657.69
2022-12-28T15:53:59.843Z,97666.34
2022-12-28T15:56:35.302Z,97647.03
2022-12-28T15:59:04.461Z,97662.00
2022-12-28T16:01:32.277Z,97650.56
2022-12-28T16:04:01.293Z,97652.50
2022-12-28T16:07:20.220Z,97647.38
2022-12-28T16:09:47.040Z,97639.47
2022-12-28T16:13:44.486Z,97651.31
2022-12-28T16:17:57.241Z,97652.50
2022-12-28T16:22:04.159Z,97652.13
2022-12-28T16:25:42.767Z,97665.91
2022-12-28T16:28:09.554Z,97649.78
2022-12-28T16:30:48.614Z,97630.09
2022-12-28T16:41:34.731Z,97627.03
2022-12-28T16:51:34.072Z,97619.19
2022-12-28T16:58:11.699Z,97617.63
2022-12-28T17:08:27.147Z,97615.28
2022-12-28T17:15:46.829Z,97609.75
2022-12-28T17:18:13.986Z,97601.06
2022-12-28T17:20:40.957Z,97599.53
2022-12-28T17:30:49.189Z,97603.00
2022-12-28T17:34:00.660Z,97598.72
2022-12-28T17:36:27.662Z,97601.47
2022-12-28T17:43:18.715Z,97589.66
2022-12-28T17:45:57.456Z,97585.31
2022-12-28T17:48:55.080Z,97585.31
2022-12-28T17:56:05.785Z,97543.59
2022-12-28T17:58:33.075Z,97557.38
2022-12-28T18:04:51.379Z,97549.09
2022-12-28T18:07:55.793Z,97544.00
2022-12-28T18:10:22.951Z,97526.31
2022-12-28T18:16:40.355Z,97527.91
2022-12-28T18:19:35.459Z,97511.78
2022-12-28T18:22:02.262Z,97527.13
2022-12-28T18:24:29.461Z,97529.09
2022-12-28T18:30:40.108Z,97517.25
2022-12-28T18:33:24.112Z,97520.81
2022-12-28T18:36:17.475Z,97528.66
2022-12-28T18:39:03.038Z,97531.41
2022-12-28T18:41:48.930Z,97516.84
2022-12-28T18:44:15.712Z,97517.66
2022-12-28T18:47:02.771Z,97514.16
2022-12-28T18:50:15.716Z,97514.59
2022-12-28T18:53:04.966Z,97508.34
2022-12-28T18:56:07.666Z,97528.84
2022-12-28T18:58:56.542Z,97529.66
2022-12-28T19:09:18.956Z,97539.13
2022-12-28T19:16:00.407Z,97562.00
2022-12-28T19:18:27.862Z,97555.31
2022-12-28T19:20:59.240Z,97562.44
2022-12-28T19:24:23.580Z,97570.69
2022-12-28T19:26:51.339Z,97572.28
2022-12-28T19:29:43.142Z,97598.25
2022-12-28T19:32:09.839Z,97621.88
2022-12-28T19:34:46.737Z,97646.69
2022-12-28T19:37:13.397Z,97648.28
2022-12-28T19:39:40.226Z,97650.72
2022-12-28T19:50:45.626Z,97674.13
2022-12-28T19:53:12.529Z,97683.19
2022-12-28T20:03:46.782Z,97689.13
2022-12-28T20:06:28.697Z,97704.84
2022-12-28T20:08:58.516Z,97707.63
2022-12-28T20:11:25.697Z,97717.06
2022-12-28T20:14:31.447Z,97724.16
2022-12-28T20:24:39.273Z,97722.59
2022-12-28T20:27:50.150Z,97719.84
2022-12-28T20:30:37.080Z,97728.88
2022-12-28T20:33:03.853Z,97720.66
2022-12-28T20:35:30.498Z,97734.81
2022-12-28T20:37:57.119Z,97727.34
2022-12-28T20:44:20.271Z,97734.41
2022-12-28T20:46:47.060Z,97739.50
2022-12-28T20:53:00.663Z,97745.00
2022-12-28T20:56:06.617Z,97746.97
2022-12-28T20:59:35.235Z,97752.06
2022-12-28T21:02:02.142Z,97771.69
2022-12-28T21:08:19.032Z,97789.75
2022-12-28T21:11:17.444Z,97795.25
2022-12-28T21:13:45.054Z,97800.75
2022-12-28T21:16:13.585Z,97808.56
2022-12-28T21:18:40.755Z,97812.91
2022-12-28T21:21:14.485Z,97807.03
2022-12-28T21:23:41.172Z,97809.38
2022-12-28T21:30:10.942Z,97834.88
2022-12-28T21:32:37.548Z,97836.06
2022-12-28T21:35:04.582Z,97828.22
2022-12-28T21:41:42.041Z,97842.69
2022-12-28T21:45:03.756Z,97839.16
2022-12-28T21:47:31.786Z,97849.34
2022-12-28T21:49:58.462Z,97845.03
2022-12-28T21:52:46.898Z,97850.16
2022-12-28T21:55:42.951Z,97843.06
2022-12-28T21:58:16.003Z,97850.91
2022-12-28T22:01:01.005Z,97846.97
2022-12-28T22:03:46.372Z,97861.47
2022-12-28T22:06:32.671Z,97857.94
2022-12-28T22:09:23.751Z,97848.91
2022-12-28T22:12:36.097Z,97851.25
2022-12-28T22:15:30.621Z,97852.81
2022-12-28T22:18:19.272Z,97855.53
2022-12-28T22:20:56.729Z,97850.00
2022-12-28T22:23:23.957Z,97857.84
2022-12-28T22:25:51.640Z,97860.22
2022-12-28T22:28:18.325Z,97865.69
2022-12-28T22:31:06.054Z,97867.25
2022-12-28T22:33:43.238Z,97861.38
2022-12-28T22:36:18.064Z,97867.22
2022-12-28T22:38:45.039Z,97861.34
2022-12-28T22:41:30.194Z,97867.56
2022-12-28T22:43:56.850Z,97875.00
2022-12-28T22:46:23.522Z,97876.56
2022-12-28T22:48:50.504Z,97865.56
2022-12-28T22:51:26.525Z,97851.44
2022-12-28T22:58:14.357Z,97872.63
2022-12-28T23:04:22.440Z,97885.19
2022-12-28T23:07:03.923Z,97887.13
2022-12-28T23:09:31.449Z,97886.75
2022-12-28T23:11:58.515Z,97891.47
2022-12-28T23:14:49.755Z,97893.03
2022-12-28T23:17:36.802Z,97913.88
2022-12-28T23:20:22.135Z,97909.56
2022-12-28T23:23:07.594Z,97914.28
2022-12-28T23:25:58.502Z,97919.34
2022-12-28T23:28:25.996Z,97914.63
2022-12-28T23:30:56.597Z,97922.06
2022-12-28T23:33:23.924Z,97920.09
2022-12-28T23:35:50.845Z,97933.41
2022-12-28T23:38:56.289Z,97927.50
2022-12-28T23:41:41.761Z,97927.50
2022-12-28T23:44:08.778Z,97932.59
2022-12-28T23:46:45.295Z,97935.31
2022-12-28T23:53:39.933Z,97950.56
2022-12-28T23:57:06.412Z,97941.13
2022-12-28T23:59:33.129Z,97946.97
